createdAt,value
2018-12-17T00:00:59.413Z,26.63
2018-12-17T00:03:27.861Z,27.47
2018-12-17T00:05:56.403Z,28.00
2018-12-17T00:08:31.859Z,25.57
2018-12-17T00:10:55.311Z,28.30
2018-12-17T00:13:23.787Z,26.53
2018-12-17T00:15:52.235Z,25.00
2018-12-17T00:18:20.660Z,24.63
2018-12-17T00:20:49.109Z,24.63
2018-12-17T00:23:17.522Z,25.13
2018-12-17T00:25:46.085Z,24.50
2018-12-17T00:28:14.617Z,25.37
2018-12-17T00:30:43.047Z,23.80
2018-12-17T00:33:11.464Z,24.87
2018-12-17T00:35:39.885Z,24.23
2018-12-17T00:38:08.345Z,23.73
2018-12-17T00:40:36.736Z,24.27
2018-12-17T00:43:05.171Z,23.87
2018-12-17T00:45:33.585Z,23.70
2018-12-17T00:48:02.112Z,23.47
2018-12-17T00:50:30.528Z,23.73
2018-12-17T00:52:58.972Z,24.43
2018-12-17T00:55:27.382Z,23.90
2018-12-17T00:57:55.833Z,23.10
2018-12-17T01:00:24.244Z,24.43
2018-12-17T01:02:52.753Z,24.00
2018-12-17T01:05:21.192Z,24.80
2018-12-17T01:07:49.616Z,22.87
2018-12-17T01:10:18.072Z,24.13
2018-12-17T01:12:46.489Z,23.47
2018-12-17T01:15:14.922Z,24.57
2018-12-17T01:17:43.384Z,23.53
2018-12-17T01:20:11.853Z,23.93
2018-12-17T01:22:40.297Z,22.33
2018-12-17T01:25:08.722Z,21.97
2018-12-17T01:27:37.162Z,21.93
2018-12-17T01:30:06.832Z,22.63
2018-12-17T01:32:35.794Z,24.27
2018-12-17T01:35:04.924Z,23.63
2018-12-17T01:37:33.483Z,21.80
2018-12-17T01:40:01.921Z,23.43
2018-12-17T01:42:30.377Z,24.47
2018-12-17T01:44:58.754Z,25.20
2018-12-17T01:47:27.204Z,26.63
2018-12-17T01:49:55.723Z,25.30
2018-12-17T01:52:24.129Z,23.87
2018-12-17T01:54:52.548Z,24.20
2018-12-17T01:57:20.949Z,22.97
2018-12-17T01:59:49.442Z,23.23
2018-12-17T02:02:17.867Z,22.80
2018-12-17T02:04:46.490Z,21.93
2018-12-17T02:07:15.366Z,23.10
2018-12-17T02:09:44.032Z,22.53
2018-12-17T02:12:12.445Z,22.53
2018-12-17T02:14:40.911Z,21.47
2018-12-17T02:17:09.357Z,22.60
2018-12-17T02:19:37.790Z,21.87
2018-12-17T02:22:06.221Z,22.17
2018-12-17T02:24:34.643Z,21.67
2018-12-17T02:27:03.192Z,21.27
2018-12-17T02:29:31.619Z,20.93
2018-12-17T02:32:00.088Z,20.67
2018-12-17T02:34:28.807Z,21.23
2018-12-17T02:36:57.465Z,19.97
2018-12-17T02:39:25.907Z,21.33
2018-12-17T02:41:54.317Z,20.90
2018-12-17T02:44:23.205Z,22.03
2018-12-17T02:46:51.825Z,21.30
2018-12-17T02:49:20.581Z,21.20
2018-12-17T02:51:48.994Z,23.73
2018-12-17T02:54:17.415Z,24.47
2018-12-17T02:56:45.929Z,24.63
2018-12-17T02:59:14.368Z,23.30
2018-12-17T03:01:42.924Z,23.60
2018-12-17T03:04:11.444Z,23.13
2018-12-17T03:06:39.882Z,22.30
2018-12-17T03:09:08.545Z,22.57
2018-12-17T03:11:37.352Z,21.77
2018-12-17T03:14:05.916Z,21.40
2018-12-17T03:16:34.371Z,22.60
2018-12-17T03:19:02.878Z,21.53
2018-12-17T03:21:31.332Z,21.73
2018-12-17T03:23:59.811Z,21.33
2018-12-17T03:26:28.224Z,21.77
2018-12-17T03:28:56.724Z,21.40
2018-12-17T03:31:25.383Z,21.53
2018-12-17T03:33:53.846Z,21.10
2018-12-17T03:36:22.359Z,21.03
2018-12-17T03:38:50.799Z,21.37
2018-12-17T03:41:19.237Z,21.00
2018-12-17T03:43:47.662Z,21.10
2018-12-17T03:46:16.165Z,20.90
2018-12-17T03:48:44.615Z,20.97
2018-12-17T03:51:13.286Z,20.57
2018-12-17T03:53:41.713Z,20.27
2018-12-17T03:56:10.211Z,21.47
2018-12-17T03:58:38.619Z,21.23
2018-12-17T04:01:07.284Z,20.93
2018-12-17T04:03:36.079Z,20.47
2018-12-17T04:06:04.702Z,21.97
2018-12-17T04:08:33.133Z,22.13
2018-12-17T04:11:01.545Z,23.53
2018-12-17T04:13:29.983Z,22.57
2018-12-17T04:15:58.505Z,22.97
2018-12-17T04:18:27.073Z,22.87
2018-12-17T04:20:55.516Z,22.67
2018-12-17T04:23:23.973Z,22.60
2018-12-17T04:25:52.379Z,23.17
2018-12-17T04:28:20.873Z,22.90
2018-12-17T04:30:49.289Z,22.33
2018-12-17T04:33:17.707Z,22.60
2018-12-17T04:35:46.131Z,21.83
2018-12-17T04:38:14.699Z,23.07
2018-12-17T04:40:43.155Z,21.77
2018-12-17T04:43:11.581Z,21.40
2018-12-17T04:45:40.223Z,23.43
2018-12-17T04:48:08.653Z,21.40
2018-12-17T04:50:37.083Z,22.63
2018-12-17T04:53:05.489Z,21.20
2018-12-17T04:55:33.909Z,21.00
2018-12-17T04:58:02.961Z,21.83
2018-12-17T05:00:31.401Z,20.67
2018-12-17T05:02:59.826Z,20.33
2018-12-17T05:05:28.238Z,22.17
2018-12-17T05:07:56.683Z,21.43
2018-12-17T05:10:25.086Z,20.87
2018-12-17T05:12:53.512Z,21.73
2018-12-17T05:15:21.948Z,22.13
2018-12-17T05:17:50.376Z,21.97
2018-12-17T05:20:18.993Z,22.70
2018-12-17T05:22:47.397Z,25.83
2018-12-17T05:25:15.843Z,21.83
2018-12-17T05:27:44.301Z,22.03
2018-12-17T05:30:12.844Z,21.43
2018-12-17T05:32:41.272Z,21.87
2018-12-17T05:35:09.972Z,21.70
2018-12-17T05:37:38.383Z,22.50
2018-12-17T05:40:07.086Z,22.07
2018-12-17T05:42:35.504Z,21.03
2018-12-17T05:45:04.331Z,21.27
2018-12-17T05:47:32.863Z,21.07
2018-12-17T05:50:01.292Z,21.30
2018-12-17T05:52:29.721Z,21.43
2018-12-17T05:54:58.150Z,21.57
2018-12-17T05:57:26.579Z,21.60
2018-12-17T05:59:54.980Z,21.93
2018-12-17T06:02:23.434Z,22.00
2018-12-17T06:04:51.818Z,21.13
2018-12-17T06:07:20.250Z,21.77
2018-12-17T06:09:48.692Z,21.37
2018-12-17T06:12:20.264Z,21.60
2018-12-17T06:14:48.682Z,21.33
2018-12-17T06:17:17.150Z,20.73
2018-12-17T06:19:45.624Z,22.13
2018-12-17T06:22:14.052Z,22.60
2018-12-17T06:24:42.586Z,22.43
2018-12-17T06:27:10.984Z,21.97
2018-12-17T06:29:39.440Z,23.03
2018-12-17T06:32:07.860Z,23.27
2018-12-17T06:34:36.274Z,23.83
2018-12-17T06:37:04.702Z,24.07
2018-12-17T06:39:33.126Z,24.23
2018-12-17T06:42:01.548Z,24.67
2018-12-17T06:44:30.032Z,25.63
2018-12-17T06:46:58.550Z,25.83
2018-12-17T06:49:27.018Z,27.43
2018-12-17T06:51:55.788Z,27.00
2018-12-17T06:54:24.408Z,26.63
2018-12-17T06:56:52.844Z,28.53
2018-12-17T06:59:21.256Z,31.20
2018-12-17T07:01:50.175Z,29.17
2018-12-17T07:04:18.590Z,28.17
2018-12-17T07:06:47.168Z,29.50
2018-12-17T07:09:15.656Z,29.07
2018-12-17T07:11:44.074Z,30.97
2018-12-17T07:14:12.527Z,31.23
2018-12-17T07:16:40.963Z,38.83
2018-12-17T07:19:09.389Z,54.70
2018-12-17T07:21:37.809Z,39.33
2018-12-17T07:24:06.252Z,32.80
2018-12-17T07:26:34.664Z,27.80
2018-12-17T07:29:03.110Z,30.00
2018-12-17T07:31:31.547Z,30.03
2018-12-17T07:33:59.989Z,30.13
2018-12-17T07:36:28.407Z,27.43
2018-12-17T07:38:56.863Z,27.37
2018-12-17T07:41:25.296Z,29.87
2018-12-17T07:43:53.725Z,27.53
2018-12-17T07:46:22.147Z,28.07
2018-12-17T07:48:50.612Z,26.27
2018-12-17T07:51:19.086Z,26.50
2018-12-17T07:53:47.496Z,24.80
2018-12-17T07:56:15.917Z,21.83
2018-12-17T07:58:44.325Z,21.23
2018-12-17T08:01:12.777Z,22.17
2018-12-17T08:03:41.369Z,21.33
2018-12-17T08:06:09.798Z,22.57
2018-12-17T08:08:38.258Z,22.20
2018-12-17T08:11:06.688Z,23.10
2018-12-17T08:13:35.241Z,23.00
2018-12-17T08:16:03.866Z,23.30
2018-12-17T08:18:32.304Z,28.57
2018-12-17T08:21:00.741Z,29.37
2018-12-17T08:23:29.199Z,29.90
2018-12-17T08:25:57.638Z,28.57
2018-12-17T08:28:26.180Z,28.70
2018-12-17T08:30:54.736Z,27.00
2018-12-17T08:33:23.190Z,27.43
2018-12-17T08:35:51.735Z,29.23
2018-12-17T08:38:20.198Z,28.60
2018-12-17T08:40:48.805Z,29.40
2018-12-17T08:43:17.236Z,29.40
2018-12-17T08:45:45.746Z,28.60
2018-12-17T08:48:14.228Z,29.23
2018-12-17T08:50:42.664Z,26.40
2018-12-17T08:53:11.208Z,26.97
2018-12-17T08:55:39.878Z,27.00
2018-12-17T08:58:08.325Z,26.20
2018-12-17T09:00:36.759Z,26.70
2018-12-17T09:03:05.348Z,26.07
2018-12-17T09:05:33.787Z,25.00
2018-12-17T09:08:02.230Z,24.23
2018-12-17T09:10:30.735Z,23.23
2018-12-17T09:12:59.347Z,29.90
2018-12-17T09:15:27.828Z,26.10
2018-12-17T09:17:56.259Z,23.97
2018-12-17T09:20:24.917Z,22.63
2018-12-17T09:22:53.343Z,20.77
2018-12-17T09:25:21.924Z,21.77
2018-12-17T09:27:50.337Z,20.70
2018-12-17T09:30:18.776Z,21.13
2018-12-17T09:32:47.271Z,23.47
2018-12-17T09:35:15.668Z,21.27
2018-12-17T09:37:44.286Z,21.50
2018-12-17T09:40:12.713Z,21.47
2018-12-17T09:42:41.187Z,20.13
2018-12-17T09:45:09.609Z,20.07
2018-12-17T09:47:38.044Z,19.43
2018-12-17T09:50:06.672Z,19.00
2018-12-17T09:52:35.104Z,18.37
2018-12-17T09:55:03.655Z,17.33
2018-12-17T09:57:32.087Z,16.70
2018-12-17T10:00:00.499Z,16.77
2018-12-17T10:02:28.953Z,16.67
2018-12-17T10:04:57.395Z,17.87
2018-12-17T10:07:30.412Z,18.77
2018-12-17T10:09:56.288Z,20.73
2018-12-17T10:12:24.741Z,21.97
2018-12-17T10:14:53.164Z,20.37
2018-12-17T10:17:21.613Z,20.17
2018-12-17T10:19:50.071Z,20.20
2018-12-17T10:22:18.479Z,23.60
2018-12-17T10:24:46.909Z,21.30
2018-12-17T10:27:16.426Z,20.43
2018-12-17T10:29:45.102Z,21.47
2018-12-17T10:32:13.643Z,21.70
2018-12-17T10:34:42.170Z,22.50
2018-12-17T10:37:10.588Z,24.40
2018-12-17T10:39:39.130Z,23.63
2018-12-17T10:42:07.581Z,21.17
2018-12-17T10:44:36.115Z,20.17
2018-12-17T10:47:04.540Z,19.43
2018-12-17T10:49:32.969Z,17.27
2018-12-17T10:52:01.416Z,17.27
2018-12-17T10:54:29.841Z,16.63
2018-12-17T10:56:58.298Z,16.37
2018-12-17T10:59:26.747Z,16.03
2018-12-17T11:02:03.211Z,16.33
2018-12-17T11:04:35.871Z,13.03
2018-12-17T11:07:04.733Z,14.73
2018-12-17T11:09:33.271Z,15.27
2018-12-17T11:12:01.712Z,14.73
2018-12-17T11:14:30.329Z,14.90
2018-12-17T11:16:58.799Z,15.60
2018-12-17T11:19:27.230Z,15.47
2018-12-17T11:21:55.709Z,15.03
2018-12-17T11:24:24.119Z,15.43
2018-12-17T11:26:52.537Z,14.13
2018-12-17T11:29:20.967Z,15.93
2018-12-17T11:31:49.396Z,16.83
2018-12-17T11:34:17.829Z,16.33
2018-12-17T11:36:46.353Z,16.57
2018-12-17T11:39:14.771Z,17.60
2018-12-17T11:41:43.203Z,18.80
2018-12-17T11:44:11.787Z,16.87
2018-12-17T11:46:40.200Z,16.77
2018-12-17T11:49:08.667Z,15.40
2018-12-17T11:51:37.075Z,17.47
2018-12-17T11:54:05.641Z,17.57
2018-12-17T11:56:49.909Z,16.17
2018-12-17T11:59:18.348Z,16.40
2018-12-17T12:01:46.755Z,16.97
2018-12-17T12:04:15.361Z,15.90
2018-12-17T12:06:43.806Z,14.23
2018-12-17T12:09:14.346Z,15.07
2018-12-17T12:11:42.793Z,14.90
2018-12-17T12:14:11.249Z,15.17
2018-12-17T12:16:39.676Z,17.43
2018-12-17T12:19:08.107Z,16.17
2018-12-17T12:21:36.792Z,16.37
2018-12-17T12:24:05.232Z,18.20
2018-12-17T12:26:33.694Z,19.53
2018-12-17T12:29:02.226Z,18.70
2018-12-17T12:31:30.654Z,19.90
2018-12-17T12:33:59.102Z,15.13
2018-12-17T12:36:27.512Z,16.33
2018-12-17T12:38:55.896Z,16.27
2018-12-17T12:41:24.478Z,15.53
2018-12-17T12:43:52.948Z,15.30
2018-12-17T12:46:21.393Z,16.47
2018-12-17T12:48:49.955Z,16.27
2018-12-17T12:51:18.392Z,17.60
2018-12-17T12:53:46.812Z,17.37
2018-12-17T12:56:15.322Z,18.77
2018-12-17T12:58:43.814Z,17.97
2018-12-17T13:01:12.256Z,16.63
2018-12-17T13:03:40.707Z,16.23
2018-12-17T13:06:09.184Z,16.40
2018-12-17T13:08:37.691Z,15.73
2018-12-17T13:11:06.229Z,15.97
2018-12-17T13:13:34.712Z,14.87
2018-12-17T13:16:03.210Z,16.20
2018-12-17T13:18:31.626Z,15.90
2018-12-17T13:21:00.157Z,16.17
2018-12-17T13:23:28.615Z,15.80
2018-12-17T13:25:57.221Z,17.57
2018-12-17T13:28:25.667Z,17.43
2018-12-17T13:30:54.100Z,18.50
2018-12-17T13:33:22.603Z,23.70
2018-12-17T13:35:51.029Z,17.77
2018-12-17T13:38:19.473Z,17.17
2018-12-17T13:40:47.939Z,16.57
2018-12-17T13:43:16.370Z,16.70
2018-12-17T13:45:44.799Z,18.20
2018-12-17T13:48:14.115Z,17.73
2018-12-17T13:50:42.751Z,16.97
2018-12-17T13:53:16.459Z,17.00
2018-12-17T13:55:44.905Z,17.70
2018-12-17T13:58:13.464Z,17.30
2018-12-17T14:00:42.002Z,18.20
2018-12-17T14:03:10.419Z,17.97
2018-12-17T14:05:39.109Z,18.33
2018-12-17T14:08:07.760Z,17.57
2018-12-17T14:10:41.469Z,19.57
2018-12-17T14:13:10.052Z,20.57
2018-12-17T14:15:44.018Z,18.37
2018-12-17T14:18:17.751Z,17.80
2018-12-17T14:20:51.524Z,18.03
2018-12-17T14:23:20.061Z,17.70
2018-12-17T14:25:48.484Z,18.43
2018-12-17T14:28:16.918Z,18.93
2018-12-17T14:30:45.500Z,18.43
2018-12-17T14:33:14.034Z,19.87
2018-12-17T14:35:46.716Z,19.50
2018-12-17T14:38:15.170Z,18.53
2018-12-17T14:40:43.724Z,18.77
2018-12-17T14:43:12.199Z,17.43
2018-12-17T14:45:40.616Z,19.57
2018-12-17T14:48:09.064Z,20.27
2018-12-17T14:50:37.497Z,18.20
2018-12-17T14:53:05.953Z,19.37
2018-12-17T14:55:34.394Z,18.47
2018-12-17T14:58:02.946Z,19.50
2018-12-17T15:00:31.370Z,19.47
2018-12-17T15:02:59.807Z,18.60
2018-12-17T15:05:28.256Z,18.53
2018-12-17T15:07:56.759Z,18.13
2018-12-17T15:10:25.599Z,17.53
2018-12-17T15:12:54.021Z,19.23
2018-12-17T15:15:22.465Z,19.03
2018-12-17T15:17:51.055Z,19.70
2018-12-17T15:20:19.638Z,19.57
2018-12-17T15:22:48.069Z,19.03
2018-12-17T15:25:16.523Z,19.37
2018-12-17T15:27:44.971Z,17.63
2018-12-17T15:30:13.648Z,18.17
2018-12-17T15:32:42.236Z,17.77
2018-12-17T15:35:10.714Z,19.13
2018-12-17T15:37:39.144Z,17.87
2018-12-17T15:40:07.728Z,22.58
2018-12-17T15:42:40.776Z,18.63
2018-12-17T15:45:07.473Z,18.63
2018-12-17T15:47:35.992Z,16.90
2018-12-17T15:50:04.779Z,17.47
2018-12-17T15:52:33.237Z,16.87
2018-12-17T15:55:02.460Z,18.67
2018-12-17T15:57:32.327Z,17.97
2018-12-17T16:00:01.033Z,18.67
2018-12-17T16:02:29.451Z,19.60
2018-12-17T16:04:57.965Z,22.77
2018-12-17T16:07:26.409Z,20.37
2018-12-17T16:09:56.203Z,23.70
2018-12-17T16:12:25.130Z,22.00
2018-12-17T16:14:53.591Z,18.07
2018-12-17T16:17:22.119Z,16.10
2018-12-17T16:19:50.679Z,16.43
2018-12-17T16:22:19.207Z,16.87
2018-12-17T16:24:47.891Z,28.43
2018-12-17T16:27:19.400Z,24.87
2018-12-17T16:29:46.799Z,34.83
2018-12-17T16:32:15.261Z,33.87
2018-12-17T16:34:43.678Z,34.23
2018-12-17T16:37:12.223Z,49.33
2018-12-17T16:39:40.819Z,44.90
2018-12-17T16:42:09.373Z,24.03
2018-12-17T16:44:38.171Z,23.97
2018-12-17T16:47:06.699Z,23.87
2018-12-17T16:49:35.156Z,24.00
2018-12-17T16:52:03.617Z,23.03
2018-12-17T16:54:32.130Z,27.87
2018-12-17T16:57:00.626Z,27.87
2018-12-17T16:59:29.095Z,27.60
2018-12-17T17:02:04.298Z,26.73
2018-12-17T17:04:28.094Z,26.60
2018-12-17T17:06:56.598Z,25.27
2018-12-17T17:09:25.185Z,25.93
2018-12-17T17:11:53.649Z,25.40
2018-12-17T17:14:22.164Z,29.47
2018-12-17T17:16:50.721Z,30.57
2018-12-17T17:19:19.220Z,31.13
2018-12-17T17:21:47.760Z,29.73
2018-12-17T17:24:16.214Z,30.50
2018-12-17T17:26:44.749Z,28.00
2018-12-17T17:29:13.362Z,28.57
2018-12-17T17:31:41.952Z,30.77
2018-12-17T17:34:10.530Z,30.83
2018-12-17T17:36:39.067Z,31.57
2018-12-17T17:39:08.804Z,32.97
2018-12-17T17:41:37.414Z,33.23
2018-12-17T17:44:05.980Z,31.73
2018-12-17T17:46:34.479Z,30.37
2018-12-17T17:49:03.004Z,30.47
2018-12-17T17:51:31.525Z,30.73
2018-12-17T17:54:00.082Z,31.03
2018-12-17T17:56:28.656Z,30.63
2018-12-17T17:58:57.918Z,29.00
2018-12-17T18:01:26.472Z,28.87
2018-12-17T18:03:56.207Z,27.50
2018-12-17T18:06:24.920Z,27.97
2018-12-17T18:08:53.950Z,27.80
2018-12-17T18:11:22.679Z,23.13
2018-12-17T18:13:51.716Z,19.10
2018-12-17T18:16:20.254Z,19.27
2018-12-17T18:18:48.883Z,20.07
2018-12-17T18:21:17.431Z,20.63
2018-12-17T18:23:45.909Z,18.83
2018-12-17T18:26:16.026Z,17.80
2018-12-17T18:28:44.694Z,18.50
2018-12-17T18:31:13.174Z,17.77
2018-12-17T18:33:41.726Z,17.60
2018-12-17T18:36:10.568Z,17.00
2018-12-17T18:38:39.354Z,17.80
2018-12-17T18:41:07.889Z,19.03
2018-12-17T18:43:36.398Z,19.03
2018-12-17T18:46:06.432Z,17.13
2018-12-17T18:48:35.053Z,18.57
2018-12-17T18:51:03.583Z,18.97
2018-12-17T18:53:32.906Z,18.37
2018-12-17T18:56:01.391Z,20.20
2018-12-17T18:58:30.036Z,21.13
2018-12-17T19:00:58.678Z,21.13
2018-12-17T19:03:27.205Z,19.63
2018-12-17T19:05:56.854Z,21.10
2018-12-17T19:08:25.439Z,22.57
2018-12-17T19:10:55.658Z,23.00
2018-12-17T19:13:24.455Z,24.00
2018-12-17T19:15:53.139Z,25.43
2018-12-17T19:18:21.647Z,25.37
2018-12-17T19:20:51.673Z,24.53
2018-12-17T19:23:20.467Z,25.47
2018-12-17T19:25:49.640Z,24.57
2018-12-17T19:28:18.507Z,24.40
2018-12-17T19:30:47.423Z,23.13
2018-12-17T19:33:16.599Z,23.47
2018-12-17T19:35:46.754Z,23.40
2018-12-17T19:38:15.625Z,23.20
2018-12-17T19:40:44.157Z,23.97
2018-12-17T19:43:13.271Z,23.50
2018-12-17T19:45:42.353Z,24.77
2018-12-17T19:48:11.698Z,24.83
2018-12-17T19:50:40.690Z,24.67
2018-12-17T19:53:09.604Z,28.30
2018-12-17T19:55:38.164Z,27.77
2018-12-17T19:58:07.799Z,33.17
2018-12-17T20:00:36.395Z,38.13
2018-12-17T20:03:05.126Z,43.00
2018-12-17T20:08:06.144Z,36.97
2018-12-17T20:10:34.688Z,34.03
2018-12-17T20:13:04.290Z,34.60
2018-12-17T20:15:33.594Z,33.30
2018-12-17T20:18:02.380Z,32.50
2018-12-17T20:20:31.064Z,30.47
2018-12-17T20:23:00.367Z,29.80
2018-12-17T20:25:28.920Z,32.57
2018-12-17T20:27:57.695Z,30.20
2018-12-17T20:30:26.736Z,29.50
2018-12-17T20:32:56.830Z,25.30
2018-12-17T20:35:26.875Z,24.63
2018-12-17T20:37:55.523Z,25.97
2018-12-17T20:40:24.552Z,24.13
2018-12-17T20:42:54.696Z,24.57
2018-12-17T20:45:25.202Z,25.60
2018-12-17T20:47:54.080Z,25.17
2018-12-17T20:50:23.089Z,24.90
2018-12-17T20:52:52.333Z,24.63
2018-12-17T20:55:20.872Z,25.23
2018-12-17T20:57:50.359Z,24.00
2018-12-17T21:00:19.635Z,20.97
2018-12-17T21:02:49.338Z,22.93
2018-12-17T21:05:18.895Z,19.27
2018-12-17T21:07:47.650Z,15.80
2018-12-17T21:10:16.471Z,14.13
2018-12-17T21:12:45.058Z,15.33
2018-12-17T21:15:14.361Z,14.00
2018-12-17T21:17:43.534Z,13.87
2018-12-17T21:20:12.202Z,13.80
2018-12-17T21:22:41.008Z,13.37
2018-12-17T21:25:09.549Z,13.07
2018-12-17T21:27:38.022Z,14.23
2018-12-17T21:30:07.107Z,16.30
2018-12-17T21:32:37.950Z,14.90
2018-12-17T21:37:39.877Z,13.77
2018-12-17T21:40:08.886Z,14.00
2018-12-17T21:42:37.383Z,13.67
2018-12-17T21:45:07.530Z,14.23
2018-12-17T21:47:37.132Z,12.63
2018-12-17T21:50:07.140Z,12.13
2018-12-17T21:52:36.096Z,12.40
2018-12-17T21:55:06.094Z,12.00
2018-12-17T21:57:34.714Z,12.70
2018-12-17T22:00:03.919Z,11.80
2018-12-17T22:02:32.430Z,12.23
2018-12-17T22:05:00.902Z,13.20
2018-12-17T22:07:29.408Z,12.90
2018-12-17T22:09:58.056Z,12.30
2018-12-17T22:12:26.614Z,12.17
2018-12-17T22:14:55.278Z,14.70
2018-12-17T22:17:23.920Z,15.17
2018-12-17T22:19:52.390Z,14.57
2018-12-17T22:22:20.848Z,14.97
2018-12-17T22:24:49.306Z,13.90
2018-12-17T22:27:17.790Z,12.97
2018-12-17T22:29:46.274Z,12.90
2018-12-17T22:32:14.705Z,15.97
2018-12-17T22:34:49.684Z,13.77
2018-12-17T22:37:18.141Z,12.70
2018-12-17T22:39:46.596Z,14.33
2018-12-17T22:42:15.022Z,13.60
2018-12-17T22:44:43.457Z,11.77
2018-12-17T22:47:11.882Z,11.33
2018-12-17T22:49:40.315Z,12.07
2018-12-17T22:52:08.744Z,12.27
2018-12-17T22:54:37.283Z,14.70
2018-12-17T22:57:05.717Z,14.30
2018-12-17T22:59:34.135Z,14.30
2018-12-17T23:02:02.563Z,12.87
2018-12-17T23:04:30.997Z,12.77
2018-12-17T23:06:59.421Z,13.07
2018-12-17T23:09:26.815Z,12.33
2018-12-17T23:12:08.627Z,12.57
2018-12-17T23:14:48.111Z,11.90
2018-12-17T23:17:27.791Z,11.60
2018-12-17T23:19:56.476Z,11.50
2018-12-17T23:22:24.900Z,11.57
2018-12-17T23:24:53.299Z,12.47
2018-12-17T23:27:21.797Z,12.20
2018-12-17T23:29:50.227Z,12.47
2018-12-17T23:32:18.757Z,11.40
2018-12-17T23:34:47.271Z,11.17
2018-12-17T23:37:15.735Z,12.53
2018-12-17T23:39:44.253Z,12.07
2018-12-17T23:42:12.686Z,12.43
2018-12-17T23:44:41.219Z,13.53
2018-12-17T23:47:09.745Z,12.33
2018-12-17T23:49:38.145Z,11.87
2018-12-17T23:52:06.595Z,11.73
2018-12-17T23:54:35.011Z,11.50
2018-12-17T23:57:03.445Z,11.83
2018-12-17T23:59:31.944Z,12.00
